PAMD METAR and TAF weather

Enter ICAO airport designator
Station Type Date Time Source
PAMD METAR 2019/02/16 02:51 UTC NOAA

PAMD 160251Z AUTO 02010KT 10SM CLR M01/M08 A3000 RMK AO2 SLP148 T10111078 53020 FZRANO


Station Type Date Time Source
PAMD Decoded METAR 2019/02/16 02:51 UTC NOAA

Middleton Island, Middleton Island Airport, AK, United States (PAMD) 59-26N 146-18W 14M
Feb 15, 2019 - 09:51 PM EST / 2019.02.16 0251 UTC
Wind: from the NNE (020 degrees) at 12 MPH (10 KT):0
Visibility: 10 mile(s):0
Sky conditions: clear
Temperature: 30.0 F (-1.1 C)
Windchill: 19 F (-7 C):1
Dew Point: 18.0 F (-7.8 C)
Relative Humidity: 60%
Pressure (altimeter): 30 in. Hg (1015 hPa)
Pressure tendency: 0.06 inches (2.0 hPa) higher than three hours ago
ob: PAMD 160251Z AUTO 02010KT 10SM CLR M01/M08 A3000 RMK AO2 SLP148 T10111078 53020 FZRANO
cycle: 3

Station Type Date Time Source
PAMD TAF UTC NOAA

Error!


Example: see airport list